createdAt,value
2019-06-26T00:00:55.550Z,957.77
2019-06-26T00:01:55.585Z,957.78
2019-06-26T00:02:55.529Z,957.74
2019-06-26T00:03:55.516Z,957.75
2019-06-26T00:04:55.524Z,957.77
2019-06-26T00:05:55.485Z,957.76
2019-06-26T00:06:55.482Z,957.76
2019-06-26T00:07:55.495Z,957.81
2019-06-26T00:08:55.465Z,957.78
2019-06-26T00:09:56.476Z,957.78
2019-06-26T00:10:55.448Z,957.78
2019-06-26T00:11:55.426Z,957.80
2019-06-26T00:12:55.419Z,957.81
2019-06-26T00:13:55.422Z,957.81
2019-06-26T00:14:55.390Z,957.81
2019-06-26T00:15:55.381Z,957.82
2019-06-26T00:16:55.390Z,957.81
2019-06-26T00:17:55.360Z,957.83
2019-06-26T00:18:55.378Z,957.84
2019-06-26T00:19:55.437Z,957.83
2019-06-26T00:20:55.333Z,957.85
2019-06-26T00:21:55.318Z,957.85
2019-06-26T00:22:55.323Z,957.86
2019-06-26T00:23:55.303Z,957.87
2019-06-26T00:24:55.294Z,957.88
2019-06-26T00:25:55.272Z,957.87
2019-06-26T00:26:55.263Z,957.86
2019-06-26T00:27:55.251Z,957.86
2019-06-26T00:28:55.250Z,957.88
2019-06-26T00:29:55.242Z,957.85
2019-06-26T00:30:55.215Z,957.84
2019-06-26T00:31:55.201Z,957.84
2019-06-26T00:32:55.200Z,957.82
2019-06-26T00:33:55.183Z,957.88
2019-06-26T00:34:55.190Z,957.83
2019-06-26T00:35:55.204Z,957.83
2019-06-26T00:36:55.148Z,957.80
2019-06-26T00:37:55.141Z,957.81
2019-06-26T00:38:55.128Z,957.79
2019-06-26T00:39:55.116Z,957.81
2019-06-26T00:40:55.181Z,957.81
2019-06-26T00:41:55.123Z,957.81
2019-06-26T00:42:55.083Z,957.81
2019-06-26T00:43:55.076Z,957.81
2019-06-26T00:44:55.058Z,957.81
2019-06-26T00:45:55.046Z,957.87
2019-06-26T00:46:55.047Z,957.87
2019-06-26T00:47:55.048Z,957.83
2019-06-26T00:48:55.039Z,957.85
2019-06-26T00:49:55.029Z,957.85
2019-06-26T00:50:54.993Z,957.83
2019-06-26T00:51:54.989Z,957.80
2019-06-26T00:52:54.990Z,957.85
2019-06-26T00:53:54.974Z,957.83
2019-06-26T00:54:54.954Z,957.83
2019-06-26T00:55:55.309Z,957.85
2019-06-26T00:56:54.927Z,957.90
2019-06-26T00:57:54.906Z,957.86
2019-06-26T00:58:54.939Z,957.79
2019-06-26T00:59:54.888Z,957.85
2019-06-26T01:00:54.889Z,957.81
2019-06-26T01:01:54.872Z,957.82
2019-06-26T01:02:54.860Z,957.85
2019-06-26T01:03:54.849Z,957.88
2019-06-26T01:04:54.865Z,957.92
2019-06-26T01:05:54.880Z,957.85
2019-06-26T01:06:54.811Z,957.87
2019-06-26T01:07:54.808Z,957.89
2019-06-26T01:09:05.687Z,957.84
2019-06-26T01:09:54.885Z,957.93
2019-06-26T01:11:03.426Z,957.91
2019-06-26T01:14:23.090Z,957.84
2019-06-26T01:15:23.015Z,957.85
2019-06-26T01:16:32.341Z,957.84
2019-06-26T01:17:22.938Z,957.80
2019-06-26T01:18:31.497Z,957.83
2019-06-26T01:19:46.584Z,957.82
2019-06-26T01:20:22.887Z,957.80
2019-06-26T01:21:22.922Z,957.84
2019-06-26T01:22:22.801Z,957.79
2019-06-26T01:23:22.773Z,957.83
2019-06-26T01:24:22.776Z,957.80
2019-06-26T01:25:22.743Z,957.76
2019-06-26T01:26:22.737Z,957.79
2019-06-26T01:27:22.784Z,957.78
2019-06-26T01:28:22.718Z,957.80
2019-06-26T01:29:22.711Z,957.78
2019-06-26T01:30:22.695Z,957.80
2019-06-26T01:31:22.684Z,957.76
2019-06-26T01:32:22.691Z,957.79
2019-06-26T01:33:22.674Z,957.87
2019-06-26T01:34:33.525Z,957.78
2019-06-26T01:35:22.653Z,957.83
2019-06-26T01:36:22.628Z,957.82
2019-06-26T01:37:22.622Z,957.82
2019-06-26T01:38:22.631Z,957.80
2019-06-26T01:39:22.595Z,957.80
2019-06-26T01:40:34.224Z,957.81
2019-06-26T01:41:22.656Z,957.82
2019-06-26T01:42:22.621Z,957.81
2019-06-26T01:43:22.663Z,957.82
2019-06-26T01:44:22.610Z,957.81
2019-06-26T01:45:22.585Z,957.79
2019-06-26T01:46:22.564Z,957.79
2019-06-26T01:47:22.647Z,957.79
2019-06-26T01:48:22.491Z,957.81
2019-06-26T01:49:22.516Z,957.82
2019-06-26T01:50:22.471Z,957.75
2019-06-26T01:51:22.474Z,957.80
2019-06-26T01:52:22.464Z,957.73
2019-06-26T01:53:22.439Z,957.71
2019-06-26T01:54:22.426Z,957.76
2019-06-26T01:55:22.440Z,957.78
2019-06-26T01:56:22.405Z,957.79
2019-06-26T01:57:22.417Z,957.78
2019-06-26T01:58:22.385Z,957.85
2019-06-26T01:59:22.380Z,957.78
2019-06-26T02:00:22.407Z,957.81
2019-06-26T02:01:22.354Z,957.79
2019-06-26T02:02:22.348Z,957.79
2019-06-26T02:03:22.350Z,957.79
2019-06-26T02:04:37.121Z,957.82
2019-06-26T02:05:22.305Z,957.81
2019-06-26T02:06:22.306Z,957.80
2019-06-26T02:07:22.281Z,957.82
2019-06-26T02:08:22.275Z,957.80
2019-06-26T02:09:22.307Z,957.76
2019-06-26T02:10:22.243Z,957.78
2019-06-26T02:11:22.260Z,957.79
2019-06-26T02:12:22.222Z,957.79
2019-06-26T02:13:22.218Z,957.75
2019-06-26T02:14:30.894Z,957.76
2019-06-26T02:15:22.223Z,957.73
2019-06-26T02:16:22.196Z,957.74
2019-06-26T02:17:22.180Z,957.72
2019-06-26T02:18:22.160Z,957.71
2019-06-26T02:19:37.111Z,957.78
2019-06-26T02:20:22.134Z,957.72
2019-06-26T02:21:22.123Z,957.74
2019-06-26T02:22:22.157Z,957.71
2019-06-26T02:23:22.105Z,957.70
2019-06-26T02:24:22.095Z,957.71
2019-06-26T02:25:22.084Z,957.74
2019-06-26T02:26:22.064Z,957.73
2019-06-26T02:27:22.060Z,957.73
2019-06-26T02:28:22.072Z,957.69
2019-06-26T02:29:22.044Z,957.71
2019-06-26T02:30:22.027Z,957.70
2019-06-26T02:31:22.015Z,957.72
2019-06-26T02:32:21.998Z,957.72
2019-06-26T02:33:22.023Z,957.72
2019-06-26T02:34:21.996Z,957.69
2019-06-26T02:35:21.965Z,957.70
2019-06-26T02:36:21.960Z,957.72
2019-06-26T02:37:21.946Z,957.70
2019-06-26T02:38:21.939Z,957.68
2019-06-26T02:39:21.930Z,957.70
2019-06-26T02:40:21.922Z,957.65
2019-06-26T02:41:21.905Z,957.67
2019-06-26T02:42:21.883Z,957.68
2019-06-26T02:43:21.875Z,957.67
2019-06-26T02:44:21.885Z,957.65
2019-06-26T02:45:21.857Z,957.73
2019-06-26T02:46:21.863Z,957.67
2019-06-26T02:47:21.840Z,957.69
2019-06-26T02:48:21.819Z,957.67
2019-06-26T02:49:21.809Z,957.63
2019-06-26T02:50:21.894Z,957.67
2019-06-26T02:51:21.786Z,957.66
2019-06-26T02:52:21.803Z,957.61
2019-06-26T02:53:21.767Z,957.63
2019-06-26T02:54:21.754Z,957.67
2019-06-26T02:55:21.761Z,957.64
2019-06-26T02:56:21.735Z,957.62
2019-06-26T02:57:21.728Z,957.63
2019-06-26T02:58:21.719Z,957.59
2019-06-26T02:59:21.699Z,957.63
2019-06-26T03:00:30.326Z,957.59
2019-06-26T03:01:32.405Z,957.62
2019-06-26T03:02:21.765Z,957.59
2019-06-26T03:03:21.719Z,957.56
2019-06-26T03:04:21.659Z,957.60
2019-06-26T03:05:21.775Z,957.59
2019-06-26T03:06:21.729Z,957.58
2019-06-26T03:07:21.756Z,957.60
2019-06-26T03:08:21.620Z,957.61
2019-06-26T03:09:21.590Z,957.57
2019-06-26T03:10:21.606Z,957.56
2019-06-26T03:11:21.564Z,957.54
2019-06-26T03:12:21.565Z,957.57
2019-06-26T03:13:21.608Z,957.53
2019-06-26T03:14:21.530Z,957.58
2019-06-26T03:15:21.532Z,957.56
2019-06-26T03:16:21.514Z,957.56
2019-06-26T03:17:21.507Z,957.63
2019-06-26T03:18:21.514Z,957.56
2019-06-26T03:19:21.485Z,957.58
2019-06-26T03:20:21.560Z,957.59
2019-06-26T03:21:21.458Z,957.61
2019-06-26T03:22:21.474Z,957.63
2019-06-26T03:23:21.428Z,957.63
2019-06-26T03:24:21.435Z,957.56
2019-06-26T03:25:21.413Z,957.57
2019-06-26T03:26:21.393Z,957.58
2019-06-26T03:27:21.387Z,957.59
2019-06-26T03:28:21.391Z,957.59
2019-06-26T03:29:21.364Z,957.56
2019-06-26T03:30:21.371Z,957.56
2019-06-26T03:31:21.339Z,957.57
2019-06-26T03:32:21.329Z,957.58
2019-06-26T03:33:21.331Z,957.55
2019-06-26T03:34:21.323Z,957.58
2019-06-26T03:35:21.298Z,957.56
2019-06-26T03:36:21.287Z,957.55
2019-06-26T03:37:21.303Z,957.56
2019-06-26T03:38:21.269Z,957.57
2019-06-26T03:39:21.258Z,957.53
2019-06-26T03:40:21.241Z,957.56
2019-06-26T03:41:21.231Z,957.56
2019-06-26T03:42:21.236Z,957.61
2019-06-26T03:43:21.225Z,957.59
2019-06-26T03:44:21.215Z,957.61
2019-06-26T03:45:26.112Z,957.63
2019-06-26T03:46:22.197Z,957.62
2019-06-26T03:47:21.160Z,957.58
2019-06-26T03:48:21.153Z,957.61
2019-06-26T03:49:21.149Z,957.60
2019-06-26T03:50:21.147Z,957.63
2019-06-26T03:51:21.118Z,957.62
2019-06-26T03:52:21.104Z,957.56
2019-06-26T03:53:21.147Z,957.62
2019-06-26T03:54:21.085Z,957.61
2019-06-26T03:55:21.088Z,957.61
2019-06-26T03:56:21.095Z,957.62
2019-06-26T03:57:21.048Z,957.65
2019-06-26T03:58:21.042Z,957.60
2019-06-26T03:59:21.027Z,957.59
2019-06-26T04:00:21.053Z,957.57
2019-06-26T04:01:21.023Z,957.63
2019-06-26T04:02:21.012Z,957.61
2019-06-26T04:03:20.985Z,957.60
2019-06-26T04:04:20.996Z,957.64
2019-06-26T04:05:21.025Z,957.63
2019-06-26T04:06:20.960Z,957.65
2019-06-26T04:07:20.980Z,957.60
2019-06-26T04:08:20.928Z,957.63
2019-06-26T04:09:20.913Z,957.63
2019-06-26T04:10:20.908Z,957.61
2019-06-26T04:11:20.899Z,957.60
2019-06-26T04:12:20.912Z,957.68
2019-06-26T04:13:20.888Z,957.61
2019-06-26T04:14:20.861Z,957.64
2019-06-26T04:15:20.842Z,957.66
2019-06-26T04:16:20.844Z,957.64
2019-06-26T04:17:20.829Z,957.61
2019-06-26T04:18:20.879Z,957.62
2019-06-26T04:19:20.842Z,957.59
2019-06-26T04:20:20.795Z,957.64
2019-06-26T04:21:20.785Z,957.60
2019-06-26T04:22:20.772Z,957.63
2019-06-26T04:23:20.760Z,957.61
2019-06-26T04:24:20.753Z,957.63
2019-06-26T04:25:20.751Z,957.56
2019-06-26T04:26:20.727Z,957.59
2019-06-26T04:27:20.729Z,957.62
2019-06-26T04:28:20.705Z,957.58
2019-06-26T04:29:20.721Z,957.62
2019-06-26T04:30:20.680Z,957.60
2019-06-26T04:31:20.704Z,957.60
2019-06-26T04:32:20.655Z,957.61
2019-06-26T04:33:20.652Z,957.63
2019-06-26T04:34:20.639Z,957.62
2019-06-26T04:35:20.666Z,957.64
2019-06-26T04:36:20.622Z,957.60
2019-06-26T04:37:20.609Z,957.57
2019-06-26T04:38:20.603Z,957.60
2019-06-26T04:39:20.587Z,957.60
2019-06-26T04:40:20.733Z,957.60
2019-06-26T04:41:20.598Z,957.59
2019-06-26T04:42:20.549Z,957.63
2019-06-26T04:43:20.570Z,957.58
2019-06-26T04:44:20.525Z,957.63
2019-06-26T04:45:20.520Z,957.62
2019-06-26T04:46:20.528Z,957.58
2019-06-26T04:47:20.503Z,957.55
2019-06-26T04:48:20.484Z,957.55
2019-06-26T04:49:20.476Z,957.55
2019-06-26T04:50:20.549Z,957.56
2019-06-26T04:51:20.474Z,957.56
2019-06-26T04:52:20.447Z,957.57
2019-06-26T04:53:20.448Z,957.61
2019-06-26T04:54:20.413Z,957.56
2019-06-26T04:55:20.424Z,957.59
2019-06-26T04:56:20.392Z,957.52
2019-06-26T04:57:20.436Z,957.54
2019-06-26T04:58:20.371Z,957.57
2019-06-26T04:59:20.353Z,957.56
2019-06-26T05:00:21.851Z,957.56
2019-06-26T05:01:20.337Z,957.61
2019-06-26T05:02:20.330Z,957.58
2019-06-26T05:03:31.215Z,957.57
2019-06-26T05:41:32.859Z,957.65
2019-06-26T05:44:06.369Z,957.67
2019-06-26T05:49:26.828Z,957.67
2019-06-26T05:59:35.878Z,957.78
2019-06-26T06:30:34.427Z,957.92
2019-06-26T06:31:36.200Z,957.94
2019-06-26T06:32:35.783Z,957.90
2019-06-26T06:33:36.814Z,957.85
2019-06-26T06:34:35.280Z,957.91
2019-06-26T06:37:10.607Z,957.95
2019-06-26T07:04:29.635Z,958.12
2019-06-26T07:05:29.552Z,958.16
2019-06-26T07:06:29.566Z,958.19
2019-06-26T07:07:29.477Z,958.20
2019-06-26T07:08:29.539Z,958.21
2019-06-26T07:09:29.401Z,958.18
2019-06-26T07:10:29.382Z,958.17
2019-06-26T07:11:29.390Z,958.16
2019-06-26T07:12:29.370Z,958.21
2019-06-26T07:13:29.342Z,958.20
2019-06-26T07:14:29.340Z,958.17
2019-06-26T07:15:29.343Z,958.20
2019-06-26T07:16:29.313Z,958.24
2019-06-26T07:17:29.350Z,958.21
2019-06-26T07:18:29.289Z,958.22
2019-06-26T07:19:29.304Z,958.21
2019-06-26T07:20:29.271Z,958.28
2019-06-26T07:21:29.256Z,958.28
2019-06-26T07:22:29.240Z,958.29
2019-06-26T07:23:29.262Z,958.26
2019-06-26T07:24:29.232Z,958.33
2019-06-26T07:25:29.277Z,958.27
2019-06-26T07:26:29.215Z,958.28
2019-06-26T07:27:29.194Z,958.32
2019-06-26T07:28:29.182Z,958.30
2019-06-26T07:29:29.181Z,958.31
2019-06-26T07:30:29.174Z,958.32
2019-06-26T07:31:29.159Z,958.36
2019-06-26T07:32:29.135Z,958.31
2019-06-26T07:33:29.128Z,958.34
2019-06-26T07:34:29.163Z,958.35
2019-06-26T07:35:29.108Z,958.37
2019-06-26T07:36:29.091Z,958.36
2019-06-26T07:37:29.097Z,958.40
2019-06-26T07:38:29.070Z,958.40
2019-06-26T07:39:29.064Z,958.38
2019-06-26T07:40:29.079Z,958.38
2019-06-26T07:41:29.069Z,958.45
2019-06-26T07:42:29.315Z,958.43
2019-06-26T07:43:29.106Z,958.45
2019-06-26T07:44:29.089Z,958.45
2019-06-26T07:45:29.173Z,958.36
2019-06-26T07:46:29.094Z,958.38
2019-06-26T07:47:42.415Z,958.39
2019-06-26T07:48:29.964Z,958.38
2019-06-26T07:49:28.982Z,958.43
2019-06-26T07:50:32.257Z,958.44
2019-06-26T07:51:28.951Z,958.46
2019-06-26T07:52:29.312Z,958.45
2019-06-26T07:53:28.913Z,958.44
2019-06-26T07:54:28.987Z,958.40
2019-06-26T07:55:29.032Z,958.46
2019-06-26T07:56:29.177Z,958.48
2019-06-26T07:57:28.867Z,958.46
2019-06-26T07:58:28.870Z,958.47
2019-06-26T07:59:28.879Z,958.48
2019-06-26T08:00:31.558Z,958.50
2019-06-26T08:01:28.837Z,958.50
2019-06-26T08:02:28.852Z,958.54
2019-06-26T08:03:28.836Z,958.52
2019-06-26T08:04:28.830Z,958.52
2019-06-26T08:05:28.814Z,958.56
2019-06-26T08:06:28.776Z,958.53
2019-06-26T08:07:28.782Z,958.56
2019-06-26T08:08:28.766Z,958.57
2019-06-26T08:09:28.765Z,958.56
2019-06-26T08:10:28.741Z,958.53
2019-06-26T08:11:28.739Z,958.57
2019-06-26T08:12:28.710Z,958.57
2019-06-26T08:13:28.711Z,958.59
2019-06-26T08:14:28.692Z,958.57
2019-06-26T08:15:28.699Z,958.60
2019-06-26T08:16:28.667Z,958.57
2019-06-26T08:17:28.658Z,958.60
2019-06-26T08:18:28.695Z,958.58
2019-06-26T08:19:28.700Z,958.64
2019-06-26T08:20:28.627Z,958.62
2019-06-26T08:21:28.653Z,958.62
2019-06-26T08:22:28.607Z,958.67
2019-06-26T08:23:28.602Z,958.65
2019-06-26T08:24:28.611Z,958.63
2019-06-26T08:25:28.578Z,958.59
2019-06-26T08:26:28.564Z,958.59
2019-06-26T08:27:28.581Z,958.58
2019-06-26T08:28:28.550Z,958.58
2019-06-26T08:29:28.528Z,958.63
2019-06-26T08:30:28.556Z,958.58
2019-06-26T08:31:28.522Z,958.62
2019-06-26T08:32:28.505Z,958.64
2019-06-26T08:33:28.503Z,958.67
2019-06-26T08:34:28.480Z,958.65
2019-06-26T08:35:28.463Z,958.73
2019-06-26T08:36:28.485Z,958.70
2019-06-26T08:37:28.448Z,958.69
2019-06-26T08:38:28.448Z,958.71
2019-06-26T08:39:28.462Z,958.71
2019-06-26T08:40:28.421Z,958.67
2019-06-26T08:41:28.400Z,958.61
2019-06-26T08:42:28.417Z,958.68
2019-06-26T08:43:31.281Z,958.63
2019-06-26T08:44:28.367Z,958.62
2019-06-26T08:45:28.385Z,958.65
2019-06-26T08:46:28.348Z,958.65
2019-06-26T08:47:28.342Z,958.64
2019-06-26T08:48:39.737Z,958.65
2019-06-26T08:49:29.318Z,958.65
2019-06-26T08:50:28.324Z,958.68
2019-06-26T08:51:28.321Z,958.64
2019-06-26T08:52:28.288Z,958.65
2019-06-26T08:53:28.288Z,958.67
2019-06-26T08:54:28.268Z,958.73
2019-06-26T08:55:28.264Z,958.73
2019-06-26T08:56:28.356Z,958.72
2019-06-26T08:57:28.258Z,958.68
2019-06-26T08:58:28.255Z,958.75
2019-06-26T08:59:28.215Z,958.73
2019-06-26T09:00:28.199Z,958.73
2019-06-26T09:01:28.191Z,958.69
2019-06-26T09:02:28.186Z,958.73
2019-06-26T09:03:28.193Z,958.71
2019-06-26T09:04:28.177Z,958.73
2019-06-26T09:05:28.156Z,958.75
2019-06-26T09:06:28.156Z,958.78
2019-06-26T09:07:28.135Z,958.76
2019-06-26T09:08:28.341Z,958.73
2019-06-26T09:09:28.141Z,958.75
2019-06-26T09:10:28.119Z,958.74
2019-06-26T09:11:28.098Z,958.77
2019-06-26T09:12:28.085Z,958.73
2019-06-26T09:13:28.074Z,958.75
2019-06-26T09:14:28.058Z,958.73
2019-06-26T09:15:28.101Z,958.76
2019-06-26T09:16:28.032Z,958.71
2019-06-26T09:17:28.025Z,958.73
2019-06-26T09:18:35.293Z,958.76
2019-06-26T09:19:29.011Z,958.85
2019-06-26T09:20:27.996Z,958.79
2019-06-26T09:21:31.023Z,958.78
2019-06-26T09:22:27.971Z,958.75
2019-06-26T09:23:31.104Z,958.76
2019-06-26T09:24:27.957Z,958.71
2019-06-26T09:25:27.947Z,958.73
2019-06-26T09:26:27.955Z,958.72
2019-06-26T09:27:27.932Z,958.73
2019-06-26T09:28:27.919Z,958.77
2019-06-26T09:29:27.905Z,958.71
2019-06-26T09:30:27.898Z,958.69
2019-06-26T09:31:27.904Z,958.71
2019-06-26T09:32:27.884Z,958.75
2019-06-26T09:33:31.231Z,958.73
2019-06-26T09:34:27.847Z,958.68
2019-06-26T09:35:27.847Z,958.75
2019-06-26T09:36:27.830Z,958.71
2019-06-26T09:37:27.845Z,958.69
2019-06-26T09:38:27.820Z,958.68
2019-06-26T09:39:27.821Z,958.67
2019-06-26T09:40:31.469Z,958.69
2019-06-26T09:41:27.778Z,958.73
2019-06-26T09:42:27.771Z,958.73
2019-06-26T09:43:27.922Z,958.70
2019-06-26T09:44:27.778Z,958.71
2019-06-26T09:45:27.733Z,958.70
2019-06-26T09:46:27.743Z,958.69
2019-06-26T09:47:30.864Z,958.65
2019-06-26T09:48:27.694Z,958.71
2019-06-26T09:49:27.709Z,958.71
2019-06-26T09:50:27.677Z,958.67
2019-06-26T09:51:27.670Z,958.70
2019-06-26T09:52:27.736Z,958.68
2019-06-26T09:53:27.650Z,958.66
2019-06-26T09:54:27.664Z,958.71
2019-06-26T09:55:27.636Z,958.59
2019-06-26T09:56:27.626Z,958.66
2019-06-26T09:57:27.614Z,958.70
2019-06-26T09:58:27.598Z,958.66
2019-06-26T09:59:27.618Z,958.68
2019-06-26T10:00:27.603Z,958.71
2019-06-26T10:01:27.566Z,958.66
2019-06-26T10:02:27.565Z,958.67
2019-06-26T10:03:27.542Z,958.66
2019-06-26T10:04:27.541Z,958.66
2019-06-26T10:05:27.550Z,958.68
2019-06-26T10:06:27.542Z,958.64
2019-06-26T10:07:27.510Z,958.65
2019-06-26T10:08:27.506Z,958.66
2019-06-26T10:09:27.480Z,958.64
2019-06-26T10:10:27.480Z,958.64
2019-06-26T10:11:27.482Z,958.65
2019-06-26T10:12:27.461Z,958.66
2019-06-26T10:13:27.447Z,958.67
2019-06-26T10:14:46.233Z,958.67
2019-06-26T10:15:28.425Z,958.65
2019-06-26T10:16:27.413Z,958.64
2019-06-26T10:17:27.453Z,958.59
2019-06-26T10:18:27.397Z,958.60
2019-06-26T10:19:27.390Z,958.60
2019-06-26T10:20:27.367Z,958.61
2019-06-26T10:21:27.369Z,958.60
2019-06-26T10:22:27.351Z,958.60
2019-06-26T10:23:27.361Z,958.53
2019-06-26T10:24:27.330Z,958.59
2019-06-26T10:25:27.410Z,958.58
2019-06-26T10:26:27.318Z,958.62
2019-06-26T10:27:27.293Z,958.60
2019-06-26T10:28:27.319Z,958.59
2019-06-26T10:29:27.307Z,958.58
2019-06-26T10:30:27.263Z,958.58
2019-06-26T10:31:27.256Z,958.57
2019-06-26T10:32:27.248Z,958.53
2019-06-26T10:33:27.233Z,958.55
2019-06-26T10:34:27.252Z,958.56
2019-06-26T10:35:27.239Z,958.52
2019-06-26T10:36:27.206Z,958.52
2019-06-26T10:37:27.224Z,958.51
2019-06-26T10:38:27.240Z,958.55
2019-06-26T10:39:27.209Z,958.56
2019-06-26T10:40:27.166Z,958.63
2019-06-26T10:41:27.180Z,958.58
2019-06-26T10:42:27.153Z,958.58
2019-06-26T10:43:27.145Z,958.55
2019-06-26T10:44:27.126Z,958.53
2019-06-26T10:45:27.137Z,958.54
2019-06-26T10:46:27.122Z,958.58
2019-06-26T10:47:27.097Z,958.56
2019-06-26T10:48:27.081Z,958.55
2019-06-26T10:49:27.983Z,958.68
2019-06-26T10:50:27.073Z,958.59
2019-06-26T10:51:27.069Z,958.56
2019-06-26T10:52:27.066Z,958.52
2019-06-26T10:53:27.027Z,958.55
2019-06-26T10:54:27.032Z,958.53
2019-06-26T10:55:27.014Z,958.53
2019-06-26T10:56:28.862Z,958.51
2019-06-26T10:57:26.992Z,958.55
2019-06-26T10:58:27.009Z,958.54
2019-06-26T10:59:26.974Z,958.49
2019-06-26T11:00:26.967Z,958.51
2019-06-26T11:01:26.958Z,958.46
2019-06-26T11:02:26.964Z,958.46
2019-06-26T11:03:26.936Z,958.48
2019-06-26T11:04:26.925Z,958.43
2019-06-26T11:05:26.904Z,958.38
2019-06-26T11:06:26.893Z,958.38
2019-06-26T11:07:26.893Z,958.43
2019-06-26T11:08:27.158Z,958.44
2019-06-26T11:09:26.865Z,958.34
2019-06-26T11:10:26.857Z,958.39
2019-06-26T11:11:26.855Z,958.38
2019-06-26T11:12:26.840Z,958.44
2019-06-26T11:13:26.939Z,958.38
2019-06-26T11:14:26.849Z,958.37
2019-06-26T11:15:26.804Z,958.36
2019-06-26T11:16:26.795Z,958.38
2019-06-26T11:17:26.777Z,958.36
2019-06-26T11:18:26.774Z,958.35
2019-06-26T11:19:39.491Z,958.32
2019-06-26T11:20:27.768Z,958.33
2019-06-26T11:21:26.747Z,958.29
2019-06-26T11:22:26.731Z,958.35
2019-06-26T11:23:26.722Z,958.34
2019-06-26T11:24:26.720Z,958.28
2019-06-26T11:25:26.732Z,958.32
2019-06-26T11:26:26.716Z,958.31
2019-06-26T11:27:26.674Z,958.30
2019-06-26T11:28:26.671Z,958.25
2019-06-26T11:29:26.672Z,958.22
2019-06-26T11:30:26.646Z,958.17
2019-06-26T11:31:26.653Z,958.25
2019-06-26T11:32:26.642Z,958.12
2019-06-26T11:33:26.614Z,958.09
2019-06-26T11:34:26.616Z,958.14
2019-06-26T11:35:26.591Z,958.16
2019-06-26T11:36:26.595Z,958.10
2019-06-26T11:37:26.579Z,958.13
2019-06-26T11:38:26.587Z,958.13
2019-06-26T11:39:26.563Z,958.15
2019-06-26T11:40:26.581Z,958.19
2019-06-26T11:41:26.571Z,958.13
2019-06-26T11:42:26.532Z,958.16
2019-06-26T11:43:26.552Z,958.13
2019-06-26T11:44:26.523Z,958.08
2019-06-26T11:45:26.496Z,958.10
2019-06-26T11:46:26.482Z,958.12
2019-06-26T11:47:26.499Z,958.10
2019-06-26T11:48:26.464Z,958.17
2019-06-26T11:49:26.452Z,958.11
2019-06-26T11:50:26.455Z,958.09
2019-06-26T11:51:26.429Z,958.11
2019-06-26T11:52:26.423Z,958.12
2019-06-26T11:53:26.427Z,958.09
2019-06-26T11:54:26.412Z,958.06
2019-06-26T11:55:26.395Z,958.04
2019-06-26T11:56:26.399Z,958.05
2019-06-26T11:57:26.372Z,958.07
2019-06-26T11:58:26.373Z,958.02
2019-06-26T11:59:26.355Z,958.06
2019-06-26T12:00:26.340Z,958.08
2019-06-26T12:01:26.338Z,958.11
2019-06-26T12:02:26.351Z,958.04
2019-06-26T12:03:26.335Z,958.09
2019-06-26T12:04:26.306Z,958.09
2019-06-26T12:05:26.287Z,958.07
2019-06-26T12:06:26.282Z,958.05
2019-06-26T12:07:26.266Z,958.03
2019-06-26T12:08:26.284Z,957.99
2019-06-26T12:09:26.270Z,957.95
2019-06-26T12:10:26.239Z,957.96
2019-06-26T12:11:26.233Z,957.95
2019-06-26T12:12:26.220Z,957.96
2019-06-26T12:13:26.207Z,957.97
2019-06-26T12:14:26.210Z,958.03
2019-06-26T12:15:26.198Z,958.04
2019-06-26T12:16:26.178Z,958.02
2019-06-26T12:17:26.172Z,958.04
2019-06-26T12:18:26.153Z,957.97
2019-06-26T12:19:26.150Z,957.98
2019-06-26T12:20:26.469Z,957.96
2019-06-26T12:21:26.133Z,958.00
2019-06-26T12:22:26.124Z,957.99
2019-06-26T12:23:26.117Z,958.00
2019-06-26T12:24:26.695Z,957.95
2019-06-26T12:25:26.093Z,957.96
2019-06-26T12:26:26.106Z,957.96
2019-06-26T12:27:26.073Z,957.95
2019-06-26T12:28:26.062Z,957.95
2019-06-26T12:29:26.044Z,957.95
2019-06-26T12:30:26.038Z,957.91
2019-06-26T12:31:26.055Z,957.93
2019-06-26T12:32:26.022Z,957.93
2019-06-26T12:33:26.018Z,957.96
2019-06-26T12:34:26.004Z,957.92
2019-06-26T12:35:26.005Z,957.94
2019-06-26T12:36:25.973Z,957.93
2019-06-26T12:37:36.987Z,957.90
2019-06-26T12:38:26.979Z,957.92
2019-06-26T12:39:25.942Z,957.91
2019-06-26T12:40:25.940Z,957.90
2019-06-26T12:41:25.932Z,957.93
2019-06-26T12:42:25.910Z,957.91
2019-06-26T12:43:25.926Z,957.87
2019-06-26T12:44:25.897Z,957.86
2019-06-26T12:45:25.908Z,957.85
2019-06-26T12:46:25.875Z,957.85
2019-06-26T12:47:25.868Z,957.87
2019-06-26T12:48:25.870Z,957.86
2019-06-26T12:49:25.851Z,957.88
2019-06-26T12:50:35.239Z,957.86
2019-06-26T12:51:26.840Z,957.86
2019-06-26T12:52:25.812Z,957.88
2019-06-26T12:54:36.132Z,957.85
2019-06-26T12:55:36.045Z,957.76
2019-06-26T12:56:36.094Z,957.86
2019-06-26T12:57:36.056Z,957.89
2019-06-26T12:58:36.073Z,957.85
2019-06-26T12:59:36.026Z,957.89
2019-06-26T13:00:36.001Z,957.84
2019-06-26T13:01:35.990Z,957.86
2019-06-26T13:02:35.964Z,957.80
2019-06-26T13:03:35.966Z,957.81
2019-06-26T13:04:35.957Z,957.84
2019-06-26T13:05:35.938Z,957.85
2019-06-26T13:06:35.951Z,957.81
2019-06-26T13:07:35.913Z,957.78
2019-06-26T13:08:35.903Z,957.82
2019-06-26T13:09:35.936Z,957.76
2019-06-26T13:12:03.473Z,957.77
2019-06-26T13:12:48.554Z,957.75
2019-06-26T13:14:02.191Z,957.74
2019-06-26T13:14:49.939Z,957.73
2019-06-26T13:15:50.902Z,957.78
2019-06-26T13:19:46.838Z,957.79
2019-06-26T13:32:23.776Z,957.68
2019-06-26T13:33:02.714Z,957.65
2019-06-26T13:34:02.714Z,957.69
2019-06-26T13:35:02.764Z,957.68
2019-06-26T13:36:02.649Z,957.66
2019-06-26T13:37:02.621Z,957.71
2019-06-26T13:38:26.964Z,957.61
2019-06-26T13:39:02.635Z,957.68
2019-06-26T13:40:02.596Z,957.73
2019-06-26T13:41:02.597Z,957.66
2019-06-26T13:42:02.568Z,957.63
2019-06-26T13:43:02.569Z,957.65
2019-06-26T13:44:02.574Z,957.69
2019-06-26T13:45:02.621Z,957.71
2019-06-26T13:46:02.539Z,957.68
2019-06-26T13:47:02.512Z,957.70
2019-06-26T13:48:02.551Z,957.65
2019-06-26T13:49:02.526Z,957.61
2019-06-26T13:50:02.952Z,957.65
2019-06-26T13:51:09.395Z,957.61
2019-06-26T13:52:03.478Z,957.64
2019-06-26T13:53:02.456Z,957.65
2019-06-26T13:54:02.446Z,957.66
2019-06-26T13:55:02.461Z,957.65
2019-06-26T13:56:02.438Z,957.64
2019-06-26T13:57:02.417Z,957.56
2019-06-26T13:58:02.410Z,957.55
2019-06-26T13:59:02.394Z,957.58
2019-06-26T14:00:02.384Z,957.64
2019-06-26T14:01:02.395Z,957.61
2019-06-26T14:02:02.364Z,957.59
2019-06-26T14:03:02.353Z,957.57
2019-06-26T14:04:02.374Z,957.57
2019-06-26T14:05:02.865Z,957.54
2019-06-26T14:06:02.348Z,957.59
2019-06-26T14:07:02.328Z,957.54
2019-06-26T14:08:02.305Z,957.57
2019-06-26T14:09:02.298Z,957.53
2019-06-26T14:10:02.318Z,957.56
2019-06-26T14:11:02.317Z,957.54
2019-06-26T14:12:02.293Z,957.54
2019-06-26T14:13:02.247Z,957.55
2019-06-26T14:14:02.260Z,957.50
2019-06-26T14:15:02.310Z,957.47
2019-06-26T14:16:02.226Z,957.49
2019-06-26T14:17:02.237Z,957.47
2019-06-26T14:18:02.218Z,957.47
2019-06-26T14:19:02.188Z,957.47
2019-06-26T14:20:02.180Z,957.46
2019-06-26T14:21:02.170Z,957.45
2019-06-26T14:22:02.163Z,957.50
2019-06-26T14:23:02.168Z,957.50
2019-06-26T14:24:02.148Z,957.50
2019-06-26T14:25:02.127Z,957.47
2019-06-26T14:26:02.125Z,957.49
2019-06-26T14:27:02.109Z,957.47
2019-06-26T14:28:02.117Z,957.47
2019-06-26T14:29:02.096Z,957.43
2019-06-26T14:30:02.099Z,957.42
2019-06-26T14:31:02.073Z,957.40
2019-06-26T14:32:02.068Z,957.42
2019-06-26T14:33:02.047Z,957.40
2019-06-26T14:34:02.057Z,957.41
2019-06-26T14:35:02.025Z,957.40
2019-06-26T14:36:02.030Z,957.37
2019-06-26T14:37:02.016Z,957.38
2019-06-26T14:38:01.996Z,957.38